sensor_id;sensor_type;location;lat;lon;timestamp;temperature;humidity
21772;DHT22;11047;47.904;8.110;2023-11-21T00:00:45;5.70;99.90
21772;DHT22;11047;47.904;8.110;2023-11-21T00:03:13;5.70;99.90
21772;DHT22;11047;47.904;8.110;2023-11-21T00:05:40;6.00;99.90
21772;DHT22;11047;47.904;8.110;2023-11-21T00:08:08;6.30;99.90
21772;DHT22;11047;47.904;8.110;2023-11-21T00:10:35;5.60;99.90
21772;DHT22;11047;47.904;8.110;2023-11-21T00:13:05;5.60;99.90
21772;DHT22;11047;47.904;8.110;2023-11-21T00:15:32;5.60;99.90
21772;DHT22;11047;47.904;8.110;2023-11-21T00:17:59;5.60;99.90
21772;DHT22;11047;47.904;8.110;2023-11-21T00:20:26;5.60;99.90
21772;DHT22;11047;47.904;8.110;2023-11-21T00:22:53;5.60;99.90
21772;DHT22;11047;47.904;8.110;2023-11-21T00:25:20;5.60;99.90
21772;DHT22;11047;47.904;8.110;2023-11-21T00:27:47;5.60;99.90
21772;DHT22;11047;47.904;8.110;2023-11-21T00:30:15;5.70;99.90
21772;DHT22;11047;47.904;8.110;2023-11-21T00:32:41;5.60;99.90
21772;DHT22;11047;47.904;8.110;2023-11-21T00:35:09;5.60;99.90
21772;DHT22;11047;47.904;8.110;2023-11-21T00:37:35;5.50;99.90
21772;DHT22;11047;47.904;8.110;2023-11-21T00:40:05;5.50;99.90
21772;DHT22;11047;47.904;8.110;2023-11-21T00:42:32;5.40;99.90
21772;DHT22;11047;47.904;8.110;2023-11-21T00:45:00;5.30;99.90
21772;DHT22;11047;47.904;8.110;2023-11-21T00:47:28;5.40;99.90
21772;DHT22;11047;47.904;8.110;2023-11-21T00:49:55;5.40;99.90
21772;DHT22;11047;47.904;8.110;2023-11-21T00:52:22;5.50;99.90
21772;DHT22;11047;47.904;8.110;2023-11-21T00:54:50;5.40;99.90
21772;DHT22;11047;47.904;8.110;2023-11-21T00:57:17;5.40;99.90
21772;DHT22;11047;47.904;8.110;2023-11-21T00:59:43;5.50;99.90
21772;DHT22;11047;47.904;8.110;2023-11-21T01:02:10;5.50;99.90
21772;DHT22;11047;47.904;8.110;2023-11-21T01:04:39;5.50;99.90
21772;DHT22;11047;47.904;8.110;2023-11-21T01:07:06;5.50;99.90
21772;DHT22;11047;47.904;8.110;2023-11-21T01:09:33;5.70;99.90
21772;DHT22;11047;47.904;8.110;2023-11-21T01:11:59;5.50;99.90
21772;DHT22;11047;47.904;8.110;2023-11-21T01:14:27;5.60;99.90
21772;DHT22;11047;47.904;8.110;2023-11-21T01:16:54;5.50;99.90
21772;DHT22;11047;47.904;8.110;2023-11-21T01:19:21;5.50;99.90
21772;DHT22;11047;47.904;8.110;2023-11-21T01:21:49;5.50;99.90
21772;DHT22;11047;47.904;8.110;2023-11-21T01:24:17;6.10;99.90
21772;DHT22;11047;47.904;8.110;2023-11-21T01:26:44;5.40;99.90
21772;DHT22;11047;47.904;8.110;2023-11-21T01:29:12;5.60;99.90
21772;DHT22;11047;47.904;8.110;2023-11-21T01:31:39;5.40;99.90
21772;DHT22;11047;47.904;8.110;2023-11-21T01:34:06;5.30;99.90
21772;DHT22;11047;47.904;8.110;2023-11-21T01:36:33;5.40;99.90
21772;DHT22;11047;47.904;8.110;2023-11-21T01:39:02;5.30;99.90
21772;DHT22;11047;47.904;8.110;2023-11-21T01:41:33;5.20;99.90
21772;DHT22;11047;47.904;8.110;2023-11-21T01:44:00;5.60;99.90
21772;DHT22;11047;47.904;8.110;2023-11-21T01:46:28;5.60;99.90
21772;DHT22;11047;47.904;8.110;2023-11-21T01:48:55;5.60;99.90
21772;DHT22;11047;47.904;8.110;2023-11-21T01:51:22;5.80;99.90
21772;DHT22;11047;47.904;8.110;2023-11-21T01:53:49;5.10;99.90
21772;DHT22;11047;47.904;8.110;2023-11-21T01:56:18;5.10;99.90
21772;DHT22;11047;47.904;8.110;2023-11-21T01:58:45;5.10;99.90
21772;DHT22;11047;47.904;8.110;2023-11-21T02:01:12;5.00;99.90
21772;DHT22;11047;47.904;8.110;2023-11-21T02:03:39;5.10;99.90
21772;DHT22;11047;47.904;8.110;2023-11-21T02:06:07;5.00;99.90
21772;DHT22;11047;47.904;8.110;2023-11-21T02:08:34;4.90;99.90
21772;DHT22;11047;47.904;8.110;2023-11-21T02:11:03;4.90;99.90
21772;DHT22;11047;47.904;8.110;2023-11-21T02:13:32;4.90;99.90
21772;DHT22;11047;47.904;8.110;2023-11-21T02:15:59;5.00;99.90
21772;DHT22;11047;47.904;8.110;2023-11-21T02:18:26;4.90;99.90
21772;DHT22;11047;47.904;8.110;2023-11-21T02:20:55;5.00;99.90
21772;DHT22;11047;47.904;8.110;2023-11-21T02:23:23;5.00;99.90
21772;DHT22;11047;47.904;8.110;2023-11-21T02:25:54;5.00;99.90
21772;DHT22;11047;47.904;8.110;2023-11-21T02:28:21;5.00;99.90
21772;DHT22;11047;47.904;8.110;2023-11-21T02:30:51;5.00;99.90
21772;DHT22;11047;47.904;8.110;2023-11-21T02:33:21;5.10;99.90
21772;DHT22;11047;47.904;8.110;2023-11-21T02:35:48;5.00;99.90
21772;DHT22;11047;47.904;8.110;2023-11-21T02:38:15;5.00;99.90
21772;DHT22;11047;47.904;8.110;2023-11-21T02:40:43;5.00;99.90
21772;DHT22;11047;47.904;8.110;2023-11-21T02:43:10;5.00;99.90
21772;DHT22;11047;47.904;8.110;2023-11-21T02:45:37;5.00;99.90
21772;DHT22;11047;47.904;8.110;2023-11-21T02:48:04;4.90;99.90
21772;DHT22;11047;47.904;8.110;2023-11-21T02:50:31;5.00;99.90
21772;DHT22;11047;47.904;8.110;2023-11-21T02:52:58;5.50;99.90
21772;DHT22;11047;47.904;8.110;2023-11-21T02:55:26;5.60;99.90
21772;DHT22;11047;47.904;8.110;2023-11-21T02:57:54;5.00;99.90
21772;DHT22;11047;47.904;8.110;2023-11-21T03:00:23;5.70;99.90
21772;DHT22;11047;47.904;8.110;2023-11-21T03:02:53;5.00;99.90
21772;DHT22;11047;47.904;8.110;2023-11-21T03:05:21;5.10;99.90
21772;DHT22;11047;47.904;8.110;2023-11-21T03:07:48;5.70;99.90
21772;DHT22;11047;47.904;8.110;2023-11-21T03:10:15;5.10;99.90
21772;DHT22;11047;47.904;8.110;2023-11-21T03:12:42;5.10;99.90
21772;DHT22;11047;47.904;8.110;2023-11-21T03:15:11;5.10;99.90
21772;DHT22;11047;47.904;8.110;2023-11-21T03:17:38;5.10;99.90
21772;DHT22;11047;47.904;8.110;2023-11-21T03:20:07;5.60;99.90
21772;DHT22;11047;47.904;8.110;2023-11-21T03:22:36;5.20;99.90
21772;DHT22;11047;47.904;8.110;2023-11-21T03:25:04;5.10;99.90
21772;DHT22;11047;47.904;8.110;2023-11-21T03:27:31;5.20;99.90
21772;DHT22;11047;47.904;8.110;2023-11-21T03:29:58;5.20;99.90
21772;DHT22;11047;47.904;8.110;2023-11-21T03:32:26;5.10;99.90
21772;DHT22;11047;47.904;8.110;2023-11-21T03:34:54;5.10;99.90
21772;DHT22;11047;47.904;8.110;2023-11-21T03:37:23;5.10;99.90
21772;DHT22;11047;47.904;8.110;2023-11-21T03:39:50;5.80;99.90
21772;DHT22;11047;47.904;8.110;2023-11-21T03:42:17;5.10;99.90
21772;DHT22;11047;47.904;8.110;2023-11-21T03:44:44;5.20;99.90
21772;DHT22;11047;47.904;8.110;2023-11-21T03:47:11;5.10;99.90
21772;DHT22;11047;47.904;8.110;2023-11-21T03:49:39;5.20;99.90
21772;DHT22;11047;47.904;8.110;2023-11-21T03:52:06;5.70;99.90
21772;DHT22;11047;47.904;8.110;2023-11-21T03:54:34;5.20;99.90
21772;DHT22;11047;47.904;8.110;2023-11-21T03:57:01;5.20;99.90
21772;DHT22;11047;47.904;8.110;2023-11-21T03:59:28;5.20;99.90
21772;DHT22;11047;47.904;8.110;2023-11-21T04:01:55;5.20;99.90
21772;DHT22;11047;47.904;8.110;2023-11-21T04:04:23;5.10;99.90
21772;DHT22;11047;47.904;8.110;2023-11-21T04:06:51;5.10;99.90
21772;DHT22;11047;47.904;8.110;2023-11-21T04:09:18;5.10;99.90
21772;DHT22;11047;47.904;8.110;2023-11-21T04:11:45;5.10;99.90
21772;DHT22;11047;47.904;8.110;2023-11-21T04:14:13;5.00;99.90
21772;DHT22;11047;47.904;8.110;2023-11-21T04:16:41;5.00;99.90
21772;DHT22;11047;47.904;8.110;2023-11-21T04:19:08;5.00;99.90
21772;DHT22;11047;47.904;8.110;2023-11-21T04:21:36;5.70;99.90
21772;DHT22;11047;47.904;8.110;2023-11-21T04:24:05;5.00;99.90
21772;DHT22;11047;47.904;8.110;2023-11-21T04:26:32;4.90;99.90
21772;DHT22;11047;47.904;8.110;2023-11-21T04:28:59;4.90;99.90
21772;DHT22;11047;47.904;8.110;2023-11-21T04:31:26;4.80;99.90
21772;DHT22;11047;47.904;8.110;2023-11-21T04:33:53;4.90;99.90
21772;DHT22;11047;47.904;8.110;2023-11-21T04:36:20;4.80;99.90
21772;DHT22;11047;47.904;8.110;2023-11-21T04:38:47;4.80;99.90
21772;DHT22;11047;47.904;8.110;2023-11-21T04:41:15;4.80;99.90
21772;DHT22;11047;47.904;8.110;2023-11-21T04:43:43;4.80;99.90
21772;DHT22;11047;47.904;8.110;2023-11-21T04:46:10;4.90;99.90
21772;DHT22;11047;47.904;8.110;2023-11-21T04:48:37;4.90;99.90
21772;DHT22;11047;47.904;8.110;2023-11-21T04:51:04;4.90;99.90
21772;DHT22;11047;47.904;8.110;2023-11-21T04:53:31;4.90;99.90
21772;DHT22;11047;47.904;8.110;2023-11-21T04:55:58;4.90;99.90
21772;DHT22;11047;47.904;8.110;2023-11-21T04:58:26;4.90;99.90
21772;DHT22;11047;47.904;8.110;2023-11-21T05:00:53;4.90;99.90
21772;DHT22;11047;47.904;8.110;2023-11-21T05:03:20;5.20;99.90
21772;DHT22;11047;47.904;8.110;2023-11-21T05:05:49;4.90;99.90
21772;DHT22;11047;47.904;8.110;2023-11-21T05:08:16;4.80;99.90
21772;DHT22;11047;47.904;8.110;2023-11-21T05:10:43;4.80;99.90
21772;DHT22;11047;47.904;8.110;2023-11-21T05:13:10;4.80;99.90
21772;DHT22;11047;47.904;8.110;2023-11-21T05:15:38;4.80;99.90
21772;DHT22;11047;47.904;8.110;2023-11-21T05:18:05;4.80;99.90
21772;DHT22;11047;47.904;8.110;2023-11-21T05:20:32;4.90;99.90
21772;DHT22;11047;47.904;8.110;2023-11-21T05:23:00;5.00;99.90
21772;DHT22;11047;47.904;8.110;2023-11-21T05:25:27;5.00;99.90
21772;DHT22;11047;47.904;8.110;2023-11-21T05:27:54;5.00;99.90
21772;DHT22;11047;47.904;8.110;2023-11-21T05:30:21;5.10;99.90
21772;DHT22;11047;47.904;8.110;2023-11-21T05:32:50;5.00;99.90
21772;DHT22;11047;47.904;8.110;2023-11-21T05:35:17;5.10;99.90
21772;DHT22;11047;47.904;8.110;2023-11-21T05:37:44;5.10;99.90
21772;DHT22;11047;47.904;8.110;2023-11-21T05:40:12;5.10;99.90
21772;DHT22;11047;47.904;8.110;2023-11-21T05:42:40;5.10;99.90
21772;DHT22;11047;47.904;8.110;2023-11-21T05:45:07;5.20;99.90
21772;DHT22;11047;47.904;8.110;2023-11-21T05:47:37;5.20;99.90
21772;DHT22;11047;47.904;8.110;2023-11-21T05:50:08;5.10;99.90
21772;DHT22;11047;47.904;8.110;2023-11-21T05:52:47;5.10;99.90
21772;DHT22;11047;47.904;8.110;2023-11-21T05:55:14;5.10;99.90
21772;DHT22;11047;47.904;8.110;2023-11-21T05:57:43;5.10;99.90
21772;DHT22;11047;47.904;8.110;2023-11-21T06:00:11;5.10;99.90
21772;DHT22;11047;47.904;8.110;2023-11-21T06:02:44;5.10;99.90
21772;DHT22;11047;47.904;8.110;2023-11-21T06:05:12;5.10;99.90
21772;DHT22;11047;47.904;8.110;2023-11-21T06:07:39;5.00;99.90
21772;DHT22;11047;47.904;8.110;2023-11-21T06:10:07;5.00;99.90
21772;DHT22;11047;47.904;8.110;2023-11-21T06:12:35;5.00;99.90
21772;DHT22;11047;47.904;8.110;2023-11-21T06:15:02;5.00;99.90
21772;DHT22;11047;47.904;8.110;2023-11-21T06:17:31;4.90;99.90
21772;DHT22;11047;47.904;8.110;2023-11-21T06:19:58;4.90;99.90
21772;DHT22;11047;47.904;8.110;2023-11-21T06:22:27;5.30;99.90
21772;DHT22;11047;47.904;8.110;2023-11-21T06:24:56;5.00;99.90
21772;DHT22;11047;47.904;8.110;2023-11-21T06:27:22;5.00;99.90
21772;DHT22;11047;47.904;8.110;2023-11-21T06:29:50;5.00;99.90
21772;DHT22;11047;47.904;8.110;2023-11-21T06:32:17;5.00;99.90
21772;DHT22;11047;47.904;8.110;2023-11-21T06:34:46;5.00;99.90
21772;DHT22;11047;47.904;8.110;2023-11-21T06:37:12;4.90;99.90
21772;DHT22;11047;47.904;8.110;2023-11-21T06:39:41;4.90;99.90
21772;DHT22;11047;47.904;8.110;2023-11-21T06:42:08;5.00;99.90
21772;DHT22;11047;47.904;8.110;2023-11-21T06:44:36;5.00;99.90
21772;DHT22;11047;47.904;8.110;2023-11-21T06:47:03;5.00;99.90
21772;DHT22;11047;47.904;8.110;2023-11-21T06:49:30;4.90;99.90
21772;DHT22;11047;47.904;8.110;2023-11-21T06:51:57;4.90;99.90
21772;DHT22;11047;47.904;8.110;2023-11-21T06:54:24;4.90;99.90
21772;DHT22;11047;47.904;8.110;2023-11-21T06:56:52;4.90;99.90
21772;DHT22;11047;47.904;8.110;2023-11-21T06:59:19;4.90;99.90
21772;DHT22;11047;47.904;8.110;2023-11-21T07:01:46;4.80;99.90
21772;DHT22;11047;47.904;8.110;2023-11-21T07:04:13;4.90;99.90
21772;DHT22;11047;47.904;8.110;2023-11-21T07:06:40;4.80;99.90
21772;DHT22;11047;47.904;8.110;2023-11-21T07:09:09;4.90;99.90
21772;DHT22;11047;47.904;8.110;2023-11-21T07:11:37;4.80;99.90
21772;DHT22;11047;47.904;8.110;2023-11-21T07:14:05;4.80;99.90
21772;DHT22;11047;47.904;8.110;2023-11-21T07:16:34;4.80;99.90
21772;DHT22;11047;47.904;8.110;2023-11-21T07:19:03;5.30;99.90
21772;DHT22;11047;47.904;8.110;2023-11-21T07:21:31;4.70;99.90
21772;DHT22;11047;47.904;8.110;2023-11-21T07:23:58;4.70;99.90
21772;DHT22;11047;47.904;8.110;2023-11-21T07:26:25;4.60;99.90
21772;DHT22;11047;47.904;8.110;2023-11-21T07:28:52;4.60;99.90
21772;DHT22;11047;47.904;8.110;2023-11-21T07:31:20;4.70;99.90
21772;DHT22;11047;47.904;8.110;2023-11-21T07:33:47;4.70;99.90
21772;DHT22;11047;47.904;8.110;2023-11-21T07:36:15;4.80;99.90
21772;DHT22;11047;47.904;8.110;2023-11-21T07:38:44;4.90;99.90
21772;DHT22;11047;47.904;8.110;2023-11-21T07:41:11;5.10;99.90
21772;DHT22;11047;47.904;8.110;2023-11-21T07:43:41;4.90;99.90
21772;DHT22;11047;47.904;8.110;2023-11-21T07:46:08;4.90;99.90
21772;DHT22;11047;47.904;8.110;2023-11-21T07:48:37;4.90;99.90
21772;DHT22;11047;47.904;8.110;2023-11-21T07:51:04;4.90;99.90
21772;DHT22;11047;47.904;8.110;2023-11-21T07:53:31;5.00;99.90
21772;DHT22;11047;47.904;8.110;2023-11-21T07:55:58;5.10;99.90
21772;DHT22;11047;47.904;8.110;2023-11-21T07:58:25;5.10;99.90
21772;DHT22;11047;47.904;8.110;2023-11-21T08:00:52;5.10;99.90
21772;DHT22;11047;47.904;8.110;2023-11-21T08:03:19;5.10;99.90
21772;DHT22;11047;47.904;8.110;2023-11-21T08:05:47;5.10;99.90
21772;DHT22;11047;47.904;8.110;2023-11-21T08:08:15;5.00;99.90
21772;DHT22;11047;47.904;8.110;2023-11-21T08:10:44;5.00;99.90
21772;DHT22;11047;47.904;8.110;2023-11-21T08:13:13;5.10;99.90
21772;DHT22;11047;47.904;8.110;2023-11-21T08:15:42;4.90;99.90
21772;DHT22;11047;47.904;8.110;2023-11-21T08:18:11;5.00;99.90
21772;DHT22;11047;47.904;8.110;2023-11-21T08:20:40;5.50;99.90
21772;DHT22;11047;47.904;8.110;2023-11-21T08:23:08;4.90;99.90
21772;DHT22;11047;47.904;8.110;2023-11-21T08:25:35;5.00;99.90
21772;DHT22;11047;47.904;8.110;2023-11-21T08:28:02;5.10;99.90
21772;DHT22;11047;47.904;8.110;2023-11-21T08:30:29;5.10;99.90
21772;DHT22;11047;47.904;8.110;2023-11-21T08:32:57;5.10;99.90
21772;DHT22;11047;47.904;8.110;2023-11-21T08:35:25;5.10;99.90
21772;DHT22;11047;47.904;8.110;2023-11-21T08:37:51;5.20;99.90
21772;DHT22;11047;47.904;8.110;2023-11-21T08:40:20;5.20;99.90
21772;DHT22;11047;47.904;8.110;2023-11-21T08:42:47;5.20;99.90
21772;DHT22;11047;47.904;8.110;2023-11-21T08:45:15;5.20;99.90
21772;DHT22;11047;47.904;8.110;2023-11-21T08:47:43;5.20;99.90
21772;DHT22;11047;47.904;8.110;2023-11-21T08:50:11;5.20;99.90
21772;DHT22;11047;47.904;8.110;2023-11-21T08:52:38;5.20;99.90
21772;DHT22;11047;47.904;8.110;2023-11-21T08:55:06;5.30;99.90
21772;DHT22;11047;47.904;8.110;2023-11-21T08:57:35;5.20;99.90
21772;DHT22;11047;47.904;8.110;2023-11-21T09:00:03;5.00;99.90
21772;DHT22;11047;47.904;8.110;2023-11-21T09:02:35;5.00;99.90
21772;DHT22;11047;47.904;8.110;2023-11-21T09:05:03;4.90;99.90
21772;DHT22;11047;47.904;8.110;2023-11-21T09:07:30;4.90;99.90
21772;DHT22;11047;47.904;8.110;2023-11-21T09:09:57;4.90;99.90
21772;DHT22;11047;47.904;8.110;2023-11-21T09:12:24;5.20;99.90
21772;DHT22;11047;47.904;8.110;2023-11-21T09:14:53;4.90;99.90
21772;DHT22;11047;47.904;8.110;2023-11-21T09:17:20;4.90;99.90
21772;DHT22;11047;47.904;8.110;2023-11-21T09:19:47;4.90;99.90
21772;DHT22;11047;47.904;8.110;2023-11-21T09:25:24;5.10;99.90
21772;DHT22;11047;47.904;8.110;2023-11-21T09:27:51;5.20;99.90
21772;DHT22;11047;47.904;8.110;2023-11-21T09:30:19;5.20;99.90
21772;DHT22;11047;47.904;8.110;2023-11-21T09:32:46;5.30;99.90
21772;DHT22;11047;47.904;8.110;2023-11-21T09:35:13;5.30;99.90
21772;DHT22;11047;47.904;8.110;2023-11-21T09:37:40;5.30;99.90
21772;DHT22;11047;47.904;8.110;2023-11-21T09:40:10;6.20;99.90
21772;DHT22;11047;47.904;8.110;2023-11-21T09:42:40;5.30;99.90
21772;DHT22;11047;47.904;8.110;2023-11-21T09:45:14;5.30;99.90
21772;DHT22;11047;47.904;8.110;2023-11-21T09:47:45;5.40;99.90
21772;DHT22;11047;47.904;8.110;2023-11-21T09:50:17;5.80;99.90
21772;DHT22;11047;47.904;8.110;2023-11-21T09:52:53;5.40;99.90
21772;DHT22;11047;47.904;8.110;2023-11-21T09:55:22;5.40;99.90
21772;DHT22;11047;47.904;8.110;2023-11-21T09:57:52;5.40;99.90
21772;DHT22;11047;47.904;8.110;2023-11-21T10:00:22;5.20;99.90
21772;DHT22;11047;47.904;8.110;2023-11-21T10:02:51;5.30;99.90
21772;DHT22;11047;47.904;8.110;2023-11-21T10:05:18;5.30;99.90
21772;DHT22;11047;47.904;8.110;2023-11-21T10:07:49;5.40;99.90
21772;DHT22;11047;47.904;8.110;2023-11-21T10:10:19;5.40;99.90
21772;DHT22;11047;47.904;8.110;2023-11-21T10:12:49;5.30;99.90
21772;DHT22;11047;47.904;8.110;2023-11-21T10:15:21;5.40;99.90
21772;DHT22;11047;47.904;8.110;2023-11-21T10:17:50;5.80;99.90
21772;DHT22;11047;47.904;8.110;2023-11-21T10:20:19;5.40;99.90
21772;DHT22;11047;47.904;8.110;2023-11-21T10:22:46;5.40;99.90
21772;DHT22;11047;47.904;8.110;2023-11-21T10:25:13;5.30;99.90
21772;DHT22;11047;47.904;8.110;2023-11-21T10:27:41;5.40;99.90
21772;DHT22;11047;47.904;8.110;2023-11-21T10:30:09;5.70;99.90
21772;DHT22;11047;47.904;8.110;2023-11-21T10:32:37;5.30;99.90
21772;DHT22;11047;47.904;8.110;2023-11-21T10:35:08;5.30;99.90
21772;DHT22;11047;47.904;8.110;2023-11-21T10:37:35;5.30;99.90
21772;DHT22;11047;47.904;8.110;2023-11-21T10:40:06;5.30;99.90
21772;DHT22;11047;47.904;8.110;2023-11-21T10:42:33;5.40;99.90
21772;DHT22;11047;47.904;8.110;2023-11-21T10:45:00;5.60;99.90
21772;DHT22;11047;47.904;8.110;2023-11-21T10:47:28;5.30;99.90
21772;DHT22;11047;47.904;8.110;2023-11-21T10:49:56;6.00;99.90
21772;DHT22;11047;47.904;8.110;2023-11-21T10:52:27;6.10;99.90
21772;DHT22;11047;47.904;8.110;2023-11-21T10:54:54;5.50;99.90
21772;DHT22;11047;47.904;8.110;2023-11-21T10:57:25;5.40;99.90
21772;DHT22;11047;47.904;8.110;2023-11-21T10:59:54;5.40;99.90
21772;DHT22;11047;47.904;8.110;2023-11-21T11:02:23;5.40;99.90
21772;DHT22;11047;47.904;8.110;2023-11-21T11:04:53;5.50;99.90
21772;DHT22;11047;47.904;8.110;2023-11-21T11:07:27;5.50;99.90
21772;DHT22;11047;47.904;8.110;2023-11-21T11:09:56;5.40;99.90
21772;DHT22;11047;47.904;8.110;2023-11-21T11:12:25;5.40;99.90
21772;DHT22;11047;47.904;8.110;2023-11-21T11:14:51;5.40;99.90
21772;DHT22;11047;47.904;8.110;2023-11-21T11:17:19;5.50;99.90
21772;DHT22;11047;47.904;8.110;2023-11-21T11:19:46;5.50;99.90
21772;DHT22;11047;47.904;8.110;2023-11-21T11:22:24;5.40;99.90
21772;DHT22;11047;47.904;8.110;2023-11-21T11:25:09;5.50;99.90
21772;DHT22;11047;47.904;8.110;2023-11-21T11:27:47;5.50;99.90
21772;DHT22;11047;47.904;8.110;2023-11-21T11:30:24;5.90;99.90
21772;DHT22;11047;47.904;8.110;2023-11-21T11:33:03;5.50;99.90
21772;DHT22;11047;47.904;8.110;2023-11-21T11:35:37;6.20;99.90
21772;DHT22;11047;47.904;8.110;2023-11-21T11:38:07;5.70;99.90
21772;DHT22;11047;47.904;8.110;2023-11-21T11:40:40;6.30;99.90
21772;DHT22;11047;47.904;8.110;2023-11-21T11:43:07;5.90;99.90
21772;DHT22;11047;47.904;8.110;2023-11-21T11:45:35;5.60;99.90
21772;DHT22;11047;47.904;8.110;2023-11-21T11:48:06;5.50;99.90
21772;DHT22;11047;47.904;8.110;2023-11-21T11:50:34;5.60;99.90
21772;DHT22;11047;47.904;8.110;2023-11-21T11:53:12;5.60;99.90
21772;DHT22;11047;47.904;8.110;2023-11-21T11:55:41;5.60;99.90
21772;DHT22;11047;47.904;8.110;2023-11-21T11:58:08;5.50;99.90
21772;DHT22;11047;47.904;8.110;2023-11-21T12:00:36;5.60;99.90
21772;DHT22;11047;47.904;8.110;2023-11-21T12:03:07;5.60;99.90
21772;DHT22;11047;47.904;8.110;2023-11-21T12:05:34;5.60;99.90
21772;DHT22;11047;47.904;8.110;2023-11-21T12:08:05;5.70;99.90
21772;DHT22;11047;47.904;8.110;2023-11-21T12:10:35;5.50;99.90
21772;DHT22;11047;47.904;8.110;2023-11-21T12:13:06;5.60;99.90
21772;DHT22;11047;47.904;8.110;2023-11-21T12:15:34;6.40;99.90
21772;DHT22;11047;47.904;8.110;2023-11-21T12:18:01;5.70;99.90
21772;DHT22;11047;47.904;8.110;2023-11-21T12:20:28;5.80;99.90
21772;DHT22;11047;47.904;8.110;2023-11-21T12:22:57;5.70;99.90
21772;DHT22;11047;47.904;8.110;2023-11-21T12:25:26;6.30;99.90
21772;DHT22;11047;47.904;8.110;2023-11-21T12:27:55;5.70;99.90
21772;DHT22;11047;47.904;8.110;2023-11-21T12:30:25;5.70;99.90
21772;DHT22;11047;47.904;8.110;2023-11-21T12:32:55;6.30;99.90
21772;DHT22;11047;47.904;8.110;2023-11-21T12:35:24;5.70;99.90
21772;DHT22;11047;47.904;8.110;2023-11-21T12:37:52;5.90;99.90
21772;DHT22;11047;47.904;8.110;2023-11-21T12:40:20;6.10;99.90
21772;DHT22;11047;47.904;8.110;2023-11-21T12:42:51;6.20;99.90
21772;DHT22;11047;47.904;8.110;2023-11-21T12:45:20;5.60;99.90
21772;DHT22;11047;47.904;8.110;2023-11-21T12:47:48;5.70;99.90
21772;DHT22;11047;47.904;8.110;2023-11-21T12:50:18;6.30;99.90
21772;DHT22;11047;47.904;8.110;2023-11-21T12:52:50;5.60;99.90
21772;DHT22;11047;47.904;8.110;2023-11-21T12:55:20;5.60;99.90
21772;DHT22;11047;47.904;8.110;2023-11-21T12:57:49;5.60;99.90
21772;DHT22;11047;47.904;8.110;2023-11-21T13:00:18;5.70;99.90
21772;DHT22;11047;47.904;8.110;2023-11-21T13:02:55;5.70;99.90
21772;DHT22;11047;47.904;8.110;2023-11-21T13:05:25;5.80;99.90
21772;DHT22;11047;47.904;8.110;2023-11-21T13:07:52;5.90;99.90
21772;DHT22;11047;47.904;8.110;2023-11-21T13:10:20;6.00;99.90
21772;DHT22;11047;47.904;8.110;2023-11-21T13:12:51;6.00;99.90
21772;DHT22;11047;47.904;8.110;2023-11-21T13:15:18;6.00;99.90
21772;DHT22;11047;47.904;8.110;2023-11-21T13:17:45;6.00;99.90
21772;DHT22;11047;47.904;8.110;2023-11-21T13:20:14;5.80;99.90
21772;DHT22;11047;47.904;8.110;2023-11-21T13:22:47;5.90;99.90
21772;DHT22;11047;47.904;8.110;2023-11-21T13:25:14;6.60;99.90
21772;DHT22;11047;47.904;8.110;2023-11-21T13:27:43;5.90;99.90
21772;DHT22;11047;47.904;8.110;2023-11-21T13:30:12;5.90;99.90
21772;DHT22;11047;47.904;8.110;2023-11-21T13:32:42;5.90;99.90
21772;DHT22;11047;47.904;8.110;2023-11-21T13:35:09;5.80;99.90
21772;DHT22;11047;47.904;8.110;2023-11-21T13:37:47;5.90;99.90
21772;DHT22;11047;47.904;8.110;2023-11-21T13:40:19;6.00;99.90
21772;DHT22;11047;47.904;8.110;2023-11-21T13:42:49;5.80;99.90
21772;DHT22;11047;47.904;8.110;2023-11-21T13:45:19;6.40;99.90
21772;DHT22;11047;47.904;8.110;2023-11-21T13:47:48;6.30;99.90
21772;DHT22;11047;47.904;8.110;2023-11-21T13:50:17;6.70;99.90
21772;DHT22;11047;47.904;8.110;2023-11-21T13:52:49;6.70;99.90
21772;DHT22;11047;47.904;8.110;2023-11-21T13:55:18;6.10;99.90
21772;DHT22;11047;47.904;8.110;2023-11-21T13:57:45;6.40;99.90
21772;DHT22;11047;47.904;8.110;2023-11-21T14:00:16;7.00;99.90
21772;DHT22;11047;47.904;8.110;2023-11-21T14:02:57;6.10;99.90
21772;DHT22;11047;47.904;8.110;2023-11-21T14:05:26;6.60;99.90
21772;DHT22;11047;47.904;8.110;2023-11-21T14:07:56;6.20;99.90
21772;DHT22;11047;47.904;8.110;2023-11-21T14:10:28;6.30;99.90
21772;DHT22;11047;47.904;8.110;2023-11-21T14:13:02;6.30;99.90
21772;DHT22;11047;47.904;8.110;2023-11-21T14:15:31;6.40;99.90
21772;DHT22;11047;47.904;8.110;2023-11-21T14:17:59;6.40;99.90
21772;DHT22;11047;47.904;8.110;2023-11-21T14:20:28;6.30;99.90
21772;DHT22;11047;47.904;8.110;2023-11-21T14:22:57;6.50;99.90
21772;DHT22;11047;47.904;8.110;2023-11-21T14:25:24;7.20;99.90
21772;DHT22;11047;47.904;8.110;2023-11-21T14:27:52;6.20;99.90
21772;DHT22;11047;47.904;8.110;2023-11-21T14:30:19;6.20;99.90
21772;DHT22;11047;47.904;8.110;2023-11-21T14:32:48;6.40;99.90
21772;DHT22;11047;47.904;8.110;2023-11-21T14:35:15;6.20;99.90
21772;DHT22;11047;47.904;8.110;2023-11-21T14:37:42;6.20;99.90
21772;DHT22;11047;47.904;8.110;2023-11-21T14:40:12;6.20;99.90
21772;DHT22;11047;47.904;8.110;2023-11-21T14:42:41;6.60;99.90
21772;DHT22;11047;47.904;8.110;2023-11-21T14:45:10;6.10;99.90
21772;DHT22;11047;47.904;8.110;2023-11-21T14:47:38;6.20;99.90
21772;DHT22;11047;47.904;8.110;2023-11-21T14:50:11;6.20;99.90
21772;DHT22;11047;47.904;8.110;2023-11-21T14:53:05;6.10;99.90
21772;DHT22;11047;47.904;8.110;2023-11-21T14:55:32;6.10;99.90
21772;DHT22;11047;47.904;8.110;2023-11-21T14:58:06;6.20;99.90
21772;DHT22;11047;47.904;8.110;2023-11-21T15:00:38;6.10;99.90
21772;DHT22;11047;47.904;8.110;2023-11-21T15:03:10;6.00;99.90
21772;DHT22;11047;47.904;8.110;2023-11-21T15:05:47;6.10;99.90
21772;DHT22;11047;47.904;8.110;2023-11-21T15:08:15;6.10;99.90
21772;DHT22;11047;47.904;8.110;2023-11-21T15:10:47;5.90;99.90
21772;DHT22;11047;47.904;8.110;2023-11-21T15:13:15;6.10;99.90
21772;DHT22;11047;47.904;8.110;2023-11-21T15:15:42;6.00;99.90
21772;DHT22;11047;47.904;8.110;2023-11-21T15:18:09;6.00;99.90
21772;DHT22;11047;47.904;8.110;2023-11-21T15:20:37;6.00;99.90
21772;DHT22;11047;47.904;8.110;2023-11-21T15:23:04;5.90;99.90
21772;DHT22;11047;47.904;8.110;2023-11-21T15:25:33;6.10;99.90
21772;DHT22;11047;47.904;8.110;2023-11-21T15:28:00;5.90;99.90
21772;DHT22;11047;47.904;8.110;2023-11-21T15:30:28;5.80;99.90
21772;DHT22;11047;47.904;8.110;2023-11-21T15:32:57;5.80;99.90
21772;DHT22;11047;47.904;8.110;2023-11-21T15:35:24;5.90;99.90
21772;DHT22;11047;47.904;8.110;2023-11-21T15:37:53;5.80;99.90
21772;DHT22;11047;47.904;8.110;2023-11-21T15:40:23;5.70;99.90
21772;DHT22;11047;47.904;8.110;2023-11-21T15:42:52;5.70;99.90
21772;DHT22;11047;47.904;8.110;2023-11-21T15:45:19;5.70;99.90
21772;DHT22;11047;47.904;8.110;2023-11-21T15:47:50;5.70;99.90
21772;DHT22;11047;47.904;8.110;2023-11-21T15:50:17;5.70;99.90
21772;DHT22;11047;47.904;8.110;2023-11-21T15:52:44;5.80;99.90
21772;DHT22;11047;47.904;8.110;2023-11-21T15:55:11;5.70;99.90